sensor_id;sensor_type;location;lat;lon;timestamp;temperature;humidity
73875;HTU21D;62209;47.568;7.558;2024-03-02T00:01:11;4.80;107.77
73875;HTU21D;62209;47.568;7.558;2024-03-02T00:16:17;5.05;108.91
73875;HTU21D;62209;47.568;7.558;2024-03-02T00:31:23;5.15;108.97
73875;HTU21D;62209;47.568;7.558;2024-03-02T00:46:29;5.31;108.78
73875;HTU21D;62209;47.568;7.558;2024-03-02T01:01:37;5.40;109.32
73875;HTU21D;62209;47.568;7.558;2024-03-02T01:16:42;5.40;109.36
73875;HTU21D;62209;47.568;7.558;2024-03-02T01:31:48;5.48;109.30
73875;HTU21D;62209;47.568;7.558;2024-03-02T01:46:54;5.45;108.99
73875;HTU21D;62209;47.568;7.558;2024-03-02T02:02:00;5.35;108.96
73875;HTU21D;62209;47.568;7.558;2024-03-02T02:17:05;5.52;109.41
73875;HTU21D;62209;47.568;7.558;2024-03-02T02:32:11;5.55;109.28
73875;HTU21D;62209;47.568;7.558;2024-03-02T02:47:16;5.34;108.88
73875;HTU21D;62209;47.568;7.558;2024-03-02T03:02:22;5.10;109.12
73875;HTU21D;62209;47.568;7.558;2024-03-02T03:17:27;5.03;108.92
73875;HTU21D;62209;47.568;7.558;2024-03-02T03:32:33;5.06;108.92
73875;HTU21D;62209;47.568;7.558;2024-03-02T03:47:39;4.87;108.43
73875;HTU21D;62209;47.568;7.558;2024-03-02T04:02:44;5.01;108.65
73875;HTU21D;62209;47.568;7.558;2024-03-02T04:17:50;4.87;108.56
73875;HTU21D;62209;47.568;7.558;2024-03-02T04:32:55;5.08;108.23
73875;HTU21D;62209;47.568;7.558;2024-03-02T04:48:01;5.19;107.85
73875;HTU21D;62209;47.568;7.558;2024-03-02T05:03:06;5.25;107.47
73875;HTU21D;62209;47.568;7.558;2024-03-02T05:18:12;5.26;107.57
73875;HTU21D;62209;47.568;7.558;2024-03-02T05:33:18;5.27;107.24
73875;HTU21D;62209;47.568;7.558;2024-03-02T05:48:26;5.12;107.04
73875;HTU21D;62209;47.568;7.558;2024-03-02T06:03:31;5.10;107.08
73875;HTU21D;62209;47.568;7.558;2024-03-02T06:18:37;5.16;106.70
73875;HTU21D;62209;47.568;7.558;2024-03-02T06:33:42;5.39;105.53
73875;HTU21D;62209;47.568;7.558;2024-03-02T06:48:48;5.66;104.55
73875;HTU21D;62209;47.568;7.558;2024-03-02T07:03:54;5.71;104.21
73875;HTU21D;62209;47.568;7.558;2024-03-02T07:19:00;5.74;104.27
73875;HTU21D;62209;47.568;7.558;2024-03-02T07:34:06;6.49;102.60
73875;HTU21D;62209;47.568;7.558;2024-03-02T07:49:12;6.44;102.11
73875;HTU21D;62209;47.568;7.558;2024-03-02T08:04:18;6.39;102.24
73875;HTU21D;62209;47.568;7.558;2024-03-02T08:19:23;6.57;101.93
73875;HTU21D;62209;47.568;7.558;2024-03-02T08:34:29;6.84;101.41
73875;HTU21D;62209;47.568;7.558;2024-03-02T08:49:35;7.38;99.61
73875;HTU21D;62209;47.568;7.558;2024-03-02T09:04:40;7.88;97.94
73875;HTU21D;62209;47.568;7.558;2024-03-02T09:19:46;8.27;96.81
73875;HTU21D;62209;47.568;7.558;2024-03-02T09:34:54;8.91;96.75
73875;HTU21D;62209;47.568;7.558;2024-03-02T09:50:01;9.54;93.57
73875;HTU21D;62209;47.568;7.558;2024-03-02T10:05:07;10.50;91.75
73875;HTU21D;62209;47.568;7.558;2024-03-02T10:35:36;14.28;84.03
73875;HTU21D;62209;47.568;7.558;2024-03-02T10:50:43;14.42;82.33
73875;HTU21D;62209;47.568;7.558;2024-03-02T11:05:49;14.84;82.33
73875;HTU21D;62209;47.568;7.558;2024-03-02T11:20:57;16.54;81.13
73875;HTU21D;62209;47.568;7.558;2024-03-02T11:36:04;15.74;79.99
73875;HTU21D;62209;47.568;7.558;2024-03-02T11:51:15;15.09;80.96
73875;HTU21D;62209;47.568;7.558;2024-03-02T12:06:21;14.69;78.46
73875;HTU21D;62209;47.568;7.558;2024-03-02T12:21:28;14.48;78.96
73875;HTU21D;62209;47.568;7.558;2024-03-02T12:36:38;14.18;79.51
73875;HTU21D;62209;47.568;7.558;2024-03-02T12:51:45;14.37;81.25
73875;HTU21D;62209;47.568;7.558;2024-03-02T13:06:55;14.88;80.81
73875;HTU21D;62209;47.568;7.558;2024-03-02T13:22:02;14.84;80.49
73875;HTU21D;62209;47.568;7.558;2024-03-02T13:37:08;14.38;80.20
73875;HTU21D;62209;47.568;7.558;2024-03-02T13:52:14;13.96;78.95
73875;HTU21D;62209;47.568;7.558;2024-03-02T14:07:20;13.92;78.76
73875;HTU21D;62209;47.568;7.558;2024-03-02T14:22:26;14.08;78.11
73875;HTU21D;62209;47.568;7.558;2024-03-02T14:37:32;13.92;78.47
73875;HTU21D;62209;47.568;7.558;2024-03-02T14:52:37;14.27;76.93
73875;HTU21D;62209;47.568;7.558;2024-03-02T15:07:46;14.88;74.54
73875;HTU21D;62209;47.568;7.558;2024-03-02T15:22:51;14.08;76.98
73875;HTU21D;62209;47.568;7.558;2024-03-02T15:37:57;13.79;78.64
73875;HTU21D;62209;47.568;7.558;2024-03-02T15:53:02;13.98;78.30
73875;HTU21D;62209;47.568;7.558;2024-03-02T16:08:09;13.70;78.02
73875;HTU21D;62209;47.568;7.558;2024-03-02T16:23:15;13.45;76.46
73875;HTU21D;62209;47.568;7.558;2024-03-02T16:38:20;12.94;77.60
73875;HTU21D;62209;47.568;7.558;2024-03-02T16:53:26;12.46;78.16
73875;HTU21D;62209;47.568;7.558;2024-03-02T17:08:32;12.03;79.78
73875;HTU21D;62209;47.568;7.558;2024-03-02T17:23:37;11.51;81.14
73875;HTU21D;62209;47.568;7.558;2024-03-02T17:38:43;11.43;82.01
73875;HTU21D;62209;47.568;7.558;2024-03-02T17:53:48;11.07;83.27
73875;HTU21D;62209;47.568;7.558;2024-03-02T18:08:55;10.81;84.33
73875;HTU21D;62209;47.568;7.558;2024-03-02T18:24:00;10.64;85.77
73875;HTU21D;62209;47.568;7.558;2024-03-02T18:39:06;10.48;86.17
73875;HTU21D;62209;47.568;7.558;2024-03-02T18:54:12;10.10;88.26
73875;HTU21D;62209;47.568;7.558;2024-03-02T19:09:19;9.44;91.01
73875;HTU21D;62209;47.568;7.558;2024-03-02T19:24:25;9.22;91.70
73875;HTU21D;62209;47.568;7.558;2024-03-02T19:39:30;8.82;94.88
73875;HTU21D;62209;47.568;7.558;2024-03-02T19:54:39;8.97;92.66
73875;HTU21D;62209;47.568;7.558;2024-03-02T20:09:45;8.91;92.06
73875;HTU21D;62209;47.568;7.558;2024-03-02T20:24:51;8.80;93.27
73875;HTU21D;62209;47.568;7.558;2024-03-02T20:39:57;8.49;95.14
73875;HTU21D;62209;47.568;7.558;2024-03-02T20:55:04;8.07;96.65
73875;HTU21D;62209;47.568;7.558;2024-03-02T21:10:11;7.77;98.00
73875;HTU21D;62209;47.568;7.558;2024-03-02T21:25:16;7.76;98.13
73875;HTU21D;62209;47.568;7.558;2024-03-02T21:40:23;7.65;98.04
73875;HTU21D;62209;47.568;7.558;2024-03-02T21:55:30;7.44;98.45
73875;HTU21D;62209;47.568;7.558;2024-03-02T22:10:36;7.17;98.66
73875;HTU21D;62209;47.568;7.558;2024-03-02T22:25:42;6.72;101.49
73875;HTU21D;62209;47.568;7.558;2024-03-02T22:40:47;6.57;102.60
73875;HTU21D;62209;47.568;7.558;2024-03-02T22:55:53;6.76;97.97
73875;HTU21D;62209;47.568;7.558;2024-03-02T23:10:59;6.59;103.25
73875;HTU21D;62209;47.568;7.558;2024-03-02T23:26:04;7.05;100.28
73875;HTU21D;62209;47.568;7.558;2024-03-02T23:41:10;6.76;102.35
73875;HTU21D;62209;47.568;7.558;2024-03-02T23:56:18;7.08;101.32
